createdAt,value
2016-10-30T00:00:08.572Z,95.25
2016-10-30T00:01:08.228Z,95.50
2016-10-30T00:02:07.945Z,95.72
2016-10-30T00:03:07.595Z,95.61
2016-10-30T00:04:08.202Z,96.06
2016-10-30T00:05:07.792Z,95.84
2016-10-30T00:06:08.466Z,95.99
2016-10-30T00:07:08.205Z,96.65
2016-10-30T00:08:07.750Z,96.65
2016-10-30T00:09:08.599Z,96.82
2016-10-30T00:10:08.216Z,96.68
2016-10-30T00:12:07.860Z,95.86
2016-10-30T00:13:33.526Z,95.70
2016-10-30T00:14:09.121Z,94.37
2016-10-30T00:14:21.365Z,96.21
2016-10-30T00:15:30.469Z,95.06
2016-10-30T00:16:21.622Z,95.17
2016-10-30T00:18:03.228Z,95.82
2016-10-30T00:18:46.039Z,96.23
2016-10-30T00:19:21.786Z,96.33
2016-10-30T00:20:22.131Z,96.76
2016-10-30T00:22:22.010Z,96.17
2016-10-30T00:24:30.109Z,96.18
2016-10-30T00:25:17.253Z,96.20
2016-10-30T00:25:20.659Z,96.16
2016-10-30T00:26:18.543Z,95.05
2016-10-30T00:27:36.248Z,95.33
2016-10-30T00:28:46.616Z,95.45
2016-10-30T00:31:38.244Z,94.72
2016-10-30T00:32:07.624Z,93.88
2016-10-30T00:33:14.500Z,92.62
2016-10-30T00:33:30.488Z,92.00
2016-10-30T00:33:30.652Z,96.75
2016-10-30T00:35:17.300Z,91.80
2016-10-30T00:35:47.033Z,92.32
2016-10-30T00:36:09.352Z,93.66
2016-10-30T00:37:30.290Z,93.31
2016-10-30T00:38:06.742Z,92.91
2016-10-30T00:38:57.813Z,94.26
2016-10-30T00:41:07.045Z,93.70
2016-10-30T00:41:15.023Z,94.42
2016-10-30T00:41:44.680Z,94.08
2016-10-30T00:42:11.675Z,93.71
2016-10-30T00:43:29.494Z,93.62
2016-10-30T00:44:37.712Z,93.32
2016-10-30T00:45:23.276Z,93.97
2016-10-30T00:46:20.175Z,93.95
2016-10-30T00:49:03.695Z,94.77
2016-10-30T00:49:28.289Z,94.50
2016-10-30T00:49:29.325Z,94.65
2016-10-30T00:51:57.982Z,94.96
2016-10-30T00:56:11.734Z,94.17
2016-10-30T00:56:11.740Z,92.07
2016-10-30T00:57:27.340Z,93.64
2016-10-30T00:59:05.733Z,93.10
2016-10-30T00:59:18.800Z,94.53
2016-10-30T01:01:23.997Z,94.62
2016-10-30T01:03:13.654Z,94.67
2016-10-30T01:03:56.910Z,95.03
2016-10-30T01:04:03.511Z,94.19
2016-10-30T01:04:09.816Z,94.74
2016-10-30T01:05:07.352Z,92.67
2016-10-30T01:05:19.132Z,94.60
2016-10-30T01:05:23.496Z,95.40
2016-10-30T01:06:09.763Z,94.65
2016-10-30T01:08:09.555Z,92.66
2016-10-30T01:08:38.773Z,92.97
2016-10-30T01:08:39.293Z,94.03
2016-10-30T01:09:29.471Z,91.89
2016-10-30T01:10:09.390Z,92.14
2016-10-30T01:11:22.767Z,92.75
2016-10-30T01:12:08.355Z,93.05
2016-10-30T01:15:09.178Z,94.23
2016-10-30T01:16:07.888Z,95.14
2016-10-30T01:17:08.684Z,95.27
2016-10-30T01:18:18.218Z,95.10
2016-10-30T01:19:07.835Z,95.42
2016-10-30T01:20:08.454Z,95.54
2016-10-30T01:21:08.152Z,95.04
2016-10-30T01:22:07.891Z,95.11
2016-10-30T01:23:08.556Z,95.44
2016-10-30T01:24:08.256Z,94.99
2016-10-30T01:25:07.851Z,94.79
2016-10-30T01:26:08.300Z,94.80
2016-10-30T01:27:15.058Z,94.57
2016-10-30T01:28:07.936Z,94.98
2016-10-30T01:29:07.770Z,94.85
2016-10-30T01:30:08.458Z,95.64
2016-10-30T01:31:08.063Z,95.54
2016-10-30T01:32:07.745Z,95.41
2016-10-30T01:33:08.453Z,95.05
2016-10-30T01:34:39.306Z,94.80
2016-10-30T01:35:08.054Z,94.58
2016-10-30T01:36:07.780Z,95.63
2016-10-30T01:37:08.447Z,95.53
2016-10-30T01:38:07.986Z,95.66
2016-10-30T01:39:07.659Z,95.33
2016-10-30T01:40:08.267Z,94.87
2016-10-30T01:41:07.906Z,95.03
2016-10-30T01:42:08.639Z,94.24
2016-10-30T01:43:08.261Z,94.86
2016-10-30T01:44:08.447Z,94.84
2016-10-30T01:45:08.004Z,94.55
2016-10-30T01:46:07.877Z,94.50
2016-10-30T01:47:08.487Z,94.35
2016-10-30T01:48:08.181Z,94.51
2016-10-30T01:49:07.708Z,94.56
2016-10-30T01:50:07.934Z,94.78
2016-10-30T01:51:07.514Z,95.01
2016-10-30T01:52:08.451Z,95.19
2016-10-30T01:53:08.072Z,95.11
2016-10-30T01:54:07.791Z,94.97
2016-10-30T01:55:08.393Z,95.56
2016-10-30T01:56:08.066Z,96.16
2016-10-30T01:57:08.006Z,96.22
2016-10-30T01:58:15.106Z,95.08
2016-10-30T01:59:07.951Z,94.92
2016-10-30T02:00:07.685Z,94.53
2016-10-30T02:01:08.314Z,95.08
2016-10-30T02:02:08.033Z,95.27
2016-10-30T02:03:07.885Z,95.97
2016-10-30T02:04:08.516Z,95.58
2016-10-30T02:05:08.127Z,95.50
2016-10-30T02:06:07.622Z,95.50
2016-10-30T02:07:08.298Z,95.93
2016-10-30T02:08:07.823Z,95.20
2016-10-30T02:09:14.312Z,95.03
2016-10-30T02:10:07.846Z,94.37
2016-10-30T02:11:08.415Z,93.47
2016-10-30T02:12:07.860Z,93.69
2016-10-30T02:13:07.811Z,93.85
2016-10-30T02:14:08.494Z,92.64
2016-10-30T02:15:09.453Z,92.66
2016-10-30T02:16:08.129Z,91.97
2016-10-30T02:17:07.901Z,92.51
2016-10-30T02:18:08.544Z,92.59
2016-10-30T02:19:08.523Z,91.48
2016-10-30T02:20:08.431Z,91.23
2016-10-30T02:21:09.270Z,90.85
2016-10-30T02:22:08.629Z,90.45
2016-10-30T02:23:08.470Z,90.52
2016-10-30T02:24:08.929Z,91.34
2016-10-30T02:25:52.164Z,91.34
2016-10-30T02:26:08.078Z,92.24
2016-10-30T02:27:07.612Z,92.84
2016-10-30T02:28:15.031Z,93.45
2016-10-30T02:29:07.703Z,93.68
2016-10-30T02:30:08.534Z,93.65
2016-10-30T02:31:08.224Z,93.38
2016-10-30T02:32:07.989Z,93.81
2016-10-30T02:33:07.585Z,93.46
2016-10-30T02:34:08.221Z,93.92
2016-10-30T02:35:07.713Z,94.09
2016-10-30T02:36:08.263Z,95.13
2016-10-30T02:37:07.953Z,95.44
2016-10-30T02:38:07.631Z,95.23
2016-10-30T02:39:08.237Z,94.69
2016-10-30T02:40:07.900Z,94.28
2016-10-30T02:41:14.503Z,94.98
2016-10-30T02:42:08.157Z,95.45
2016-10-30T02:43:07.887Z,95.88
2016-10-30T02:44:08.528Z,96.11
2016-10-30T02:45:08.204Z,95.62
2016-10-30T02:46:07.763Z,94.94
2016-10-30T02:47:08.447Z,95.37
2016-10-30T02:48:08.018Z,95.55
2016-10-30T02:49:07.558Z,95.51
2016-10-30T02:50:08.182Z,95.67
2016-10-30T02:51:08.082Z,95.90
2016-10-30T02:52:07.616Z,95.65
2016-10-30T02:53:08.260Z,95.61
2016-10-30T02:54:07.907Z,95.54
2016-10-30T02:55:08.468Z,95.26
2016-10-30T02:56:07.901Z,95.73
2016-10-30T02:57:08.598Z,95.43
2016-10-30T02:58:08.358Z,95.07
2016-10-30T02:59:07.988Z,94.70
2016-10-30T03:00:07.786Z,94.18
2016-10-30T03:01:08.551Z,94.51
2016-10-30T03:02:08.449Z,94.61
2016-10-30T03:03:08.009Z,94.87
2016-10-30T03:04:07.743Z,94.81
2016-10-30T03:05:08.664Z,94.56
2016-10-30T03:06:08.393Z,94.34
2016-10-30T03:07:08.059Z,94.28
2016-10-30T03:08:08.192Z,94.39
2016-10-30T03:09:07.797Z,93.77
2016-10-30T03:10:08.506Z,94.59
2016-10-30T03:11:08.196Z,94.58
2016-10-30T03:12:07.870Z,94.72
2016-10-30T03:13:08.611Z,94.91
2016-10-30T03:14:08.296Z,95.55
2016-10-30T03:15:07.891Z,95.83
2016-10-30T03:16:08.567Z,95.61
2016-10-30T03:17:08.186Z,95.09
2016-10-30T03:18:07.706Z,94.52
2016-10-30T03:19:08.308Z,95.06
2016-10-30T03:20:07.819Z,95.38
2016-10-30T03:21:08.582Z,94.94
2016-10-30T03:22:15.080Z,95.14
2016-10-30T03:23:07.669Z,94.76
2016-10-30T03:24:08.353Z,95.37
2016-10-30T03:25:07.941Z,96.07
2016-10-30T03:26:07.480Z,95.71
2016-10-30T03:27:08.676Z,95.09
2016-10-30T03:28:09.493Z,94.86
2016-10-30T03:29:08.301Z,94.94
2016-10-30T03:30:08.080Z,93.88
2016-10-30T03:31:08.703Z,93.10
2016-10-30T03:32:10.091Z,92.55
2016-10-30T03:33:07.711Z,93.79
2016-10-30T03:34:08.601Z,94.74
2016-10-30T03:35:08.553Z,95.60
2016-10-30T03:36:08.257Z,96.15
2016-10-30T03:37:07.910Z,96.65
2016-10-30T03:38:08.636Z,96.47
2016-10-30T03:39:08.402Z,96.22
2016-10-30T03:40:07.891Z,97.51
2016-10-30T03:41:08.531Z,96.64
2016-10-30T03:42:08.097Z,95.77
2016-10-30T03:43:07.780Z,95.87
2016-10-30T03:44:08.909Z,95.99
2016-10-30T03:45:15.435Z,97.56
2016-10-30T03:46:08.079Z,97.31
2016-10-30T03:47:07.689Z,97.69
2016-10-30T03:48:08.526Z,98.18
2016-10-30T03:49:09.058Z,98.62
2016-10-30T03:50:08.002Z,98.07
2016-10-30T03:51:07.837Z,97.30
2016-10-30T03:52:08.611Z,96.52
2016-10-30T03:53:08.232Z,96.26
2016-10-30T03:54:07.903Z,95.27
2016-10-30T03:55:08.502Z,95.37
2016-10-30T03:56:09.095Z,95.62
2016-10-30T03:57:07.833Z,95.89
2016-10-30T03:58:08.452Z,95.55
2016-10-30T03:59:08.090Z,95.97
2016-10-30T04:00:08.023Z,96.46
2016-10-30T04:01:07.646Z,97.25
2016-10-30T04:02:08.498Z,98.63
2016-10-30T04:03:08.139Z,98.65
2016-10-30T04:04:13.393Z,99.75
2016-10-30T04:05:07.954Z,99.23
2016-10-30T04:06:07.894Z,98.55
2016-10-30T04:07:09.246Z,97.88
2016-10-30T04:08:07.836Z,97.46
2016-10-30T04:09:08.522Z,97.78
2016-10-30T04:10:08.121Z,98.26
2016-10-30T04:11:07.726Z,98.36
2016-10-30T04:12:08.177Z,98.75
2016-10-30T04:13:07.976Z,99.06
2016-10-30T04:14:07.517Z,99.17
2016-10-30T04:15:08.134Z,100.00
2016-10-30T04:16:07.729Z,100.00
2016-10-30T04:17:08.492Z,100.00
2016-10-30T04:18:07.997Z,100.00
2016-10-30T04:19:07.597Z,99.03
2016-10-30T04:20:08.341Z,98.93
2016-10-30T04:21:08.016Z,98.78
2016-10-30T04:22:07.825Z,98.45
2016-10-30T04:23:08.511Z,98.87
2016-10-30T04:24:08.182Z,98.90
2016-10-30T04:25:07.907Z,98.59
2016-10-30T04:26:08.598Z,99.16
2016-10-30T04:27:08.168Z,99.93
2016-10-30T04:28:08.483Z,99.95
2016-10-30T04:29:08.112Z,100.00
2016-10-30T04:30:07.985Z,100.00
2016-10-30T04:31:07.574Z,99.95
2016-10-30T04:32:08.217Z,100.00
2016-10-30T04:33:07.868Z,100.00
2016-10-30T04:34:08.509Z,99.97
2016-10-30T04:35:08.185Z,99.11
2016-10-30T04:36:10.089Z,98.85
2016-10-30T04:37:08.328Z,100.00
2016-10-30T04:38:08.343Z,100.00
2016-10-30T04:39:36.735Z,99.30
2016-10-30T04:40:08.432Z,99.42
2016-10-30T04:41:08.330Z,99.55
2016-10-30T04:42:08.056Z,100.00
2016-10-30T04:43:07.785Z,100.00
2016-10-30T04:44:08.350Z,100.00
2016-10-30T04:45:07.952Z,100.00
2016-10-30T04:46:07.595Z,100.00
2016-10-30T04:47:08.174Z,100.00
2016-10-30T04:48:07.788Z,100.00
2016-10-30T04:49:08.336Z,100.00
2016-10-30T04:50:07.890Z,100.00
2016-10-30T04:51:08.479Z,100.00
2016-10-30T04:52:08.188Z,100.00
2016-10-30T04:53:07.866Z,100.00
2016-10-30T04:54:15.585Z,100.00
2016-10-30T04:55:08.184Z,100.00
2016-10-30T04:56:07.824Z,100.00
2016-10-30T04:57:08.455Z,100.00
2016-10-30T04:58:08.372Z,100.00
2016-10-30T04:59:08.058Z,100.00
2016-10-30T05:00:07.647Z,100.00
2016-10-30T05:01:08.642Z,100.00
2016-10-30T05:02:08.273Z,100.00
2016-10-30T05:03:07.722Z,100.00
2016-10-30T05:04:07.657Z,100.00
2016-10-30T05:05:08.193Z,100.00
2016-10-30T05:06:07.811Z,100.00
2016-10-30T05:07:08.643Z,100.00
2016-10-30T05:08:08.217Z,100.00
2016-10-30T05:09:07.785Z,100.00
2016-10-30T05:10:08.633Z,100.00
2016-10-30T05:11:08.327Z,100.00
2016-10-30T05:12:08.261Z,100.00
2016-10-30T05:13:07.869Z,100.00
2016-10-30T05:14:08.518Z,100.00
2016-10-30T05:15:08.164Z,100.00
2016-10-30T05:16:07.856Z,100.00
2016-10-30T05:17:08.537Z,100.00
2016-10-30T05:18:07.969Z,100.00
2016-10-30T05:19:07.675Z,100.00
2016-10-30T05:20:08.358Z,100.00
2016-10-30T05:21:08.096Z,100.00
2016-10-30T05:22:14.029Z,100.00
2016-10-30T05:23:08.260Z,100.00
2016-10-30T05:24:07.785Z,100.00
2016-10-30T05:25:11.239Z,100.00
2016-10-30T05:26:08.222Z,100.00
2016-10-30T05:27:08.065Z,100.00
2016-10-30T05:28:07.695Z,100.00
2016-10-30T05:29:08.419Z,100.00
2016-10-30T05:30:08.052Z,100.00
2016-10-30T05:31:07.924Z,100.00
2016-10-30T05:32:07.606Z,100.00
2016-10-30T05:33:08.323Z,100.00
2016-10-30T05:34:08.018Z,100.00
2016-10-30T05:35:07.659Z,100.00
2016-10-30T05:36:08.297Z,100.00
2016-10-30T05:37:07.912Z,100.00
2016-10-30T05:38:08.507Z,100.00
2016-10-30T05:39:08.227Z,100.00
2016-10-30T05:40:07.971Z,100.00
2016-10-30T05:41:08.557Z,100.00
2016-10-30T05:42:08.108Z,100.00
2016-10-30T05:43:07.823Z,100.00
2016-10-30T05:44:10.643Z,100.00
2016-10-30T05:45:20.370Z,99.65
2016-10-30T05:46:08.907Z,100.00
2016-10-30T05:47:10.765Z,100.00
2016-10-30T05:48:08.396Z,99.73
2016-10-30T05:49:07.924Z,99.97
2016-10-30T05:50:08.008Z,99.97
2016-10-30T05:51:07.639Z,100.00
2016-10-30T05:52:08.362Z,100.00
2016-10-30T05:53:07.999Z,99.85
2016-10-30T05:54:07.789Z,100.00
2016-10-30T05:55:08.517Z,100.00
2016-10-30T05:56:08.196Z,99.89
2016-10-30T05:57:07.891Z,99.79
2016-10-30T05:58:08.463Z,99.97
2016-10-30T05:59:08.234Z,100.00
2016-10-30T06:00:08.735Z,99.85
2016-10-30T06:01:08.254Z,99.36
2016-10-30T06:02:07.930Z,99.36
2016-10-30T06:03:08.566Z,99.36
2016-10-30T06:04:08.172Z,99.39
2016-10-30T06:05:07.724Z,99.65
2016-10-30T06:06:08.726Z,99.82
2016-10-30T06:07:08.361Z,99.55
2016-10-30T06:08:07.953Z,99.67
2016-10-30T06:09:07.617Z,99.42
2016-10-30T06:10:08.183Z,99.36
2016-10-30T06:11:07.847Z,98.66
2016-10-30T06:12:08.765Z,98.47
2016-10-30T06:13:08.405Z,98.62
2016-10-30T06:14:08.049Z,98.73
2016-10-30T06:15:08.041Z,99.23
2016-10-30T06:16:07.591Z,99.06
2016-10-30T06:17:08.153Z,99.71
2016-10-30T06:18:07.777Z,99.21
2016-10-30T06:19:08.343Z,99.45
2016-10-30T06:20:08.225Z,99.22
2016-10-30T06:21:07.826Z,99.41
2016-10-30T06:22:08.542Z,99.30
2016-10-30T06:23:08.219Z,99.85
2016-10-30T06:24:07.939Z,100.00
2016-10-30T06:25:07.703Z,100.00
2016-10-30T06:26:08.591Z,100.00
2016-10-30T06:27:08.755Z,100.00
2016-10-30T06:28:08.375Z,100.00
2016-10-30T06:29:08.008Z,100.00
2016-10-30T06:30:07.746Z,100.00
2016-10-30T06:31:08.373Z,100.00
2016-10-30T06:32:08.272Z,100.00
2016-10-30T06:33:07.900Z,100.00
2016-10-30T06:34:07.588Z,100.00
2016-10-30T06:35:08.242Z,100.00
2016-10-30T06:36:07.913Z,99.86
2016-10-30T06:37:08.577Z,99.85
2016-10-30T06:38:08.314Z,99.49
2016-10-30T06:39:07.954Z,99.70
2016-10-30T06:40:07.492Z,99.38
2016-10-30T06:41:07.855Z,99.25
2016-10-30T06:42:08.514Z,99.16
2016-10-30T06:43:08.290Z,99.18
2016-10-30T06:44:07.987Z,98.92
2016-10-30T06:45:07.576Z,98.76
2016-10-30T06:46:08.206Z,100.00
2016-10-30T06:47:07.796Z,100.00
2016-10-30T06:48:08.614Z,100.00
2016-10-30T06:49:08.205Z,100.00
2016-10-30T06:50:07.864Z,100.00
2016-10-30T06:51:29.378Z,99.45
2016-10-30T06:52:08.837Z,99.95
2016-10-30T06:53:10.005Z,100.00
2016-10-30T06:54:08.829Z,100.00
2016-10-30T06:55:08.446Z,100.00
2016-10-30T06:56:14.725Z,100.00
2016-10-30T06:57:08.442Z,100.00
2016-10-30T06:58:08.160Z,100.00
2016-10-30T06:59:08.329Z,100.00
2016-10-30T07:00:07.900Z,100.00
2016-10-30T07:01:08.528Z,100.00
2016-10-30T07:02:08.090Z,100.00
2016-10-30T07:03:07.590Z,100.00
2016-10-30T07:04:07.622Z,100.00
2016-10-30T07:05:08.513Z,100.00
2016-10-30T07:06:08.211Z,100.00
2016-10-30T07:07:07.849Z,100.00
2016-10-30T07:08:08.669Z,100.00
2016-10-30T07:09:08.276Z,100.00
2016-10-30T07:10:07.923Z,100.00
2016-10-30T07:11:08.596Z,100.00
2016-10-30T07:12:08.296Z,100.00
2016-10-30T07:13:07.983Z,100.00
2016-10-30T07:14:07.561Z,99.93
2016-10-30T07:15:08.128Z,99.48
2016-10-30T07:16:07.817Z,99.85
2016-10-30T07:17:08.506Z,99.89
2016-10-30T07:18:08.112Z,100.00
2016-10-30T07:19:07.712Z,100.00
2016-10-30T07:20:08.248Z,99.72
2016-10-30T07:21:07.963Z,99.41
2016-10-30T07:22:07.543Z,98.75
2016-10-30T07:23:08.038Z,98.43
2016-10-30T07:24:08.022Z,99.08
2016-10-30T07:25:07.520Z,100.00
2016-10-30T07:26:08.430Z,100.00
2016-10-30T07:27:08.210Z,100.00
2016-10-30T07:28:07.884Z,99.68
2016-10-30T07:29:08.858Z,99.37
2016-10-30T07:30:08.472Z,99.43
2016-10-30T07:31:08.032Z,99.58
2016-10-30T07:32:08.060Z,99.37
2016-10-30T07:33:16.435Z,98.58
2016-10-30T07:34:08.123Z,98.90
2016-10-30T07:35:07.792Z,99.53
2016-10-30T07:36:08.476Z,99.56
2016-10-30T07:37:08.153Z,99.22
2016-10-30T07:38:07.850Z,98.31
2016-10-30T07:39:08.551Z,98.38
2016-10-30T07:40:08.191Z,99.11
2016-10-30T07:41:07.900Z,100.00
2016-10-30T07:42:09.113Z,99.90
2016-10-30T07:43:07.747Z,100.00
2016-10-30T07:44:08.550Z,99.86
2016-10-30T07:45:08.594Z,99.89
2016-10-30T07:46:08.202Z,99.71
2016-10-30T07:47:07.830Z,98.55
2016-10-30T07:48:08.465Z,99.11
2016-10-30T07:49:08.234Z,99.91
2016-10-30T07:50:07.832Z,99.04
2016-10-30T07:51:08.424Z,98.68
2016-10-30T07:52:08.010Z,99.19
2016-10-30T07:53:07.620Z,99.58
2016-10-30T07:54:08.178Z,100.00
2016-10-30T07:55:07.830Z,100.00
2016-10-30T07:56:08.514Z,99.61
2016-10-30T07:57:09.108Z,99.08
2016-10-30T07:58:08.489Z,98.36
2016-10-30T07:59:08.853Z,98.49
2016-10-30T08:00:09.371Z,98.95
2016-10-30T08:01:08.863Z,99.08
2016-10-30T08:02:10.291Z,98.44
2016-10-30T08:03:07.901Z,98.47
2016-10-30T08:04:08.526Z,98.95
2016-10-30T08:05:08.159Z,99.35
2016-10-30T08:06:07.981Z,99.59
2016-10-30T08:07:07.630Z,99.92
2016-10-30T08:08:08.281Z,99.88
2016-10-30T08:09:07.911Z,99.64
2016-10-30T08:10:08.599Z,99.87
2016-10-30T08:11:08.307Z,100.00
2016-10-30T08:12:08.097Z,99.70
2016-10-30T08:13:07.844Z,99.45
2016-10-30T08:14:08.708Z,99.42
2016-10-30T08:15:08.805Z,98.41
2016-10-30T08:16:08.517Z,98.52
2016-10-30T08:17:08.114Z,98.12
2016-10-30T08:18:08.241Z,98.44
2016-10-30T08:19:07.973Z,98.18
2016-10-30T08:20:07.624Z,98.01
2016-10-30T08:21:08.298Z,98.78
2016-10-30T08:22:07.905Z,99.03
2016-10-30T08:23:09.222Z,98.90
2016-10-30T08:24:07.827Z,98.77
2016-10-30T08:25:08.505Z,98.98
2016-10-30T08:26:08.333Z,98.94
2016-10-30T08:27:08.323Z,99.03
2016-10-30T08:28:08.008Z,98.85
2016-10-30T08:29:07.715Z,98.62
2016-10-30T08:30:08.505Z,98.03
2016-10-30T08:31:08.077Z,99.09
2016-10-30T08:32:07.727Z,99.91
2016-10-30T08:33:08.282Z,99.17
2016-10-30T08:34:07.982Z,98.92
2016-10-30T08:35:07.721Z,98.30
2016-10-30T08:36:08.391Z,97.94
2016-10-30T08:37:08.087Z,97.88
2016-10-30T08:38:07.704Z,97.65
2016-10-30T08:39:08.343Z,97.37
2016-10-30T08:40:07.860Z,97.89
2016-10-30T08:41:07.722Z,98.09
2016-10-30T08:42:08.514Z,98.80
2016-10-30T08:43:08.306Z,99.09
2016-10-30T08:44:07.986Z,98.10
2016-10-30T08:45:07.600Z,97.77
2016-10-30T08:46:08.308Z,97.71
2016-10-30T08:47:08.278Z,97.93
2016-10-30T08:48:07.916Z,97.86
2016-10-30T08:49:09.096Z,97.49
2016-10-30T08:50:07.706Z,97.96
2016-10-30T08:51:08.594Z,98.74
2016-10-30T08:52:08.269Z,98.09
2016-10-30T08:53:07.936Z,98.35
2016-10-30T08:54:07.664Z,98.20
2016-10-30T08:55:08.500Z,97.80
2016-10-30T08:56:08.180Z,97.40
2016-10-30T08:57:07.969Z,97.99
2016-10-30T08:58:07.692Z,97.86
2016-10-30T08:59:08.312Z,97.94
2016-10-30T09:00:07.955Z,98.39
2016-10-30T09:01:07.637Z,98.20
2016-10-30T09:02:08.775Z,97.81
2016-10-30T09:04:09.186Z,97.69
2016-10-30T09:05:08.045Z,97.67
2016-10-30T09:06:08.332Z,97.80
2016-10-30T09:07:08.526Z,97.77
2016-10-30T09:08:31.858Z,98.39
2016-10-30T09:09:23.116Z,97.64
2016-10-30T09:09:27.070Z,97.82
2016-10-30T09:10:08.528Z,97.97
2016-10-30T09:11:08.356Z,97.39
2016-10-30T09:12:08.035Z,97.35
2016-10-30T09:13:07.899Z,97.53
2016-10-30T09:14:08.487Z,96.81
2016-10-30T09:15:08.108Z,96.68
2016-10-30T09:16:22.258Z,97.20
2016-10-30T09:17:08.648Z,97.64
2016-10-30T09:18:08.366Z,97.82
2016-10-30T09:19:08.060Z,97.47
2016-10-30T09:20:07.774Z,98.38
2016-10-30T09:21:08.593Z,97.74
2016-10-30T09:22:08.165Z,97.95
2016-10-30T09:23:07.878Z,97.82
2016-10-30T09:24:08.538Z,96.76
2016-10-30T09:25:08.189Z,96.67
2016-10-30T09:26:07.731Z,96.94
2016-10-30T09:27:08.453Z,97.41
2016-10-30T09:28:08.616Z,97.29
2016-10-30T09:29:08.268Z,97.02
2016-10-30T09:30:07.908Z,97.45
2016-10-30T09:31:08.657Z,97.64
2016-10-30T09:32:08.178Z,98.16
2016-10-30T09:33:07.841Z,98.17
2016-10-30T09:34:08.589Z,97.00
2016-10-30T09:35:08.184Z,96.98
2016-10-30T09:36:07.853Z,96.75
2016-10-30T09:37:08.561Z,97.09
2016-10-30T09:38:08.260Z,97.71
2016-10-30T09:39:08.085Z,96.64
2016-10-30T09:40:15.044Z,97.29
2016-10-30T09:41:07.824Z,97.23
2016-10-30T09:42:08.445Z,97.51
2016-10-30T09:43:08.194Z,97.78
2016-10-30T09:44:07.925Z,97.31
2016-10-30T09:45:08.562Z,97.82
2016-10-30T09:46:08.142Z,97.92
2016-10-30T09:47:07.718Z,98.05
2016-10-30T09:48:08.521Z,98.07
2016-10-30T09:49:07.981Z,97.42
2016-10-30T09:50:08.519Z,97.52
2016-10-30T09:51:08.105Z,98.19
2016-10-30T09:52:07.785Z,97.69
2016-10-30T09:53:08.401Z,97.37
2016-10-30T09:54:08.282Z,97.18
2016-10-30T09:55:08.465Z,96.79
2016-10-30T09:56:08.121Z,97.41
2016-10-30T09:57:07.848Z,97.11
2016-10-30T09:58:09.137Z,97.19
2016-10-30T09:59:07.770Z,97.64
2016-10-30T10:00:08.409Z,97.59
2016-10-30T10:01:08.531Z,97.27
2016-10-30T10:02:08.271Z,96.48
2016-10-30T10:03:07.824Z,95.83
2016-10-30T10:04:08.389Z,96.12
2016-10-30T10:05:07.940Z,96.06
2016-10-30T10:06:07.576Z,96.11
2016-10-30T10:07:08.442Z,96.34
2016-10-30T10:08:08.122Z,96.57
2016-10-30T10:09:08.040Z,96.49
2016-10-30T10:10:08.201Z,96.02
2016-10-30T10:11:09.024Z,95.36
2016-10-30T10:12:08.004Z,95.58
2016-10-30T10:13:09.867Z,96.03
2016-10-30T10:14:09.567Z,96.20
2016-10-30T10:15:09.557Z,96.02
2016-10-30T10:16:10.024Z,95.99
2016-10-30T10:17:08.291Z,96.03
2016-10-30T10:18:08.011Z,96.50
2016-10-30T10:19:07.955Z,96.74
2016-10-30T10:20:07.698Z,96.59
2016-10-30T10:21:08.299Z,96.25
2016-10-30T10:22:08.211Z,95.62
2016-10-30T10:23:07.937Z,95.67
2016-10-30T10:24:07.640Z,95.15
2016-10-30T10:25:08.823Z,95.31
2016-10-30T10:26:08.529Z,95.55
2016-10-30T10:27:08.140Z,94.37
2016-10-30T10:28:07.844Z,94.53
2016-10-30T10:29:08.553Z,93.93
2016-10-30T10:30:08.269Z,92.86
2016-10-30T10:31:07.922Z,92.31
2016-10-30T10:32:08.577Z,92.66
2016-10-30T10:33:08.257Z,92.67
2016-10-30T10:34:07.921Z,92.05
2016-10-30T10:35:08.676Z,92.25
2016-10-30T10:36:08.223Z,92.24
2016-10-30T10:37:08.765Z,91.86
2016-10-30T10:38:08.711Z,91.70
2016-10-30T10:39:09.156Z,91.10
2016-10-30T10:40:07.667Z,90.31
2016-10-30T10:41:08.344Z,90.47
2016-10-30T10:42:08.033Z,90.90
2016-10-30T10:43:09.208Z,90.57
2016-10-30T10:44:08.625Z,90.31
2016-10-30T10:45:08.255Z,90.37
2016-10-30T10:46:07.962Z,90.98
2016-10-30T10:47:07.668Z,91.72
2016-10-30T10:48:08.291Z,91.31
2016-10-30T10:49:07.961Z,90.39
2016-10-30T10:50:07.635Z,89.57
2016-10-30T10:51:08.359Z,88.48
2016-10-30T10:52:07.935Z,88.73
2016-10-30T10:53:07.615Z,89.06
2016-10-30T10:54:08.172Z,88.38
2016-10-30T10:55:07.762Z,88.33
2016-10-30T10:56:08.352Z,87.19
2016-10-30T10:57:07.990Z,87.69
2016-10-30T10:58:07.758Z,86.31
2016-10-30T10:59:11.950Z,85.99
2016-10-30T11:00:21.466Z,86.51
2016-10-30T11:01:08.313Z,85.39
2016-10-30T11:02:07.858Z,85.39
2016-10-30T11:03:09.369Z,85.88
2016-10-30T11:04:08.147Z,85.24
2016-10-30T11:05:08.006Z,86.53
2016-10-30T11:06:08.148Z,85.05
2016-10-30T11:07:13.450Z,84.99
2016-10-30T11:08:09.357Z,84.62
2016-10-30T11:09:08.072Z,84.58
2016-10-30T11:10:08.025Z,84.00
2016-10-30T11:11:07.921Z,83.95
2016-10-30T11:12:08.733Z,84.39
2016-10-30T11:13:10.110Z,84.54
2016-10-30T11:14:08.272Z,81.24
2016-10-30T11:15:08.901Z,81.72
2016-10-30T11:16:08.559Z,82.10
2016-10-30T11:17:09.301Z,81.59
2016-10-30T11:18:10.610Z,80.38
2016-10-30T11:19:08.312Z,80.47
2016-10-30T11:20:09.662Z,79.90
2016-10-30T11:21:09.512Z,80.47
2016-10-30T11:22:08.750Z,80.21
2016-10-30T11:23:09.325Z,79.18
2016-10-30T11:24:08.062Z,78.72
2016-10-30T11:25:07.776Z,78.37
2016-10-30T11:26:08.273Z,78.52
2016-10-30T11:27:07.984Z,78.26
2016-10-30T11:28:07.825Z,78.21
2016-10-30T11:29:08.875Z,79.26
2016-10-30T11:30:08.614Z,79.27
2016-10-30T11:31:24.123Z,78.80
2016-10-30T11:32:07.892Z,77.45
2016-10-30T11:33:08.585Z,78.06
2016-10-30T11:34:08.884Z,77.10
2016-10-30T11:35:17.929Z,78.07
2016-10-30T11:36:07.633Z,78.87
2016-10-30T11:37:08.151Z,78.39
2016-10-30T11:38:08.009Z,76.92
2016-10-30T11:39:07.753Z,78.27
2016-10-30T11:40:08.561Z,77.50
2016-10-30T11:41:09.234Z,76.35
2016-10-30T11:42:08.437Z,76.71
2016-10-30T11:43:08.071Z,77.32
2016-10-30T11:44:14.376Z,76.98
2016-10-30T11:45:08.360Z,77.31
2016-10-30T11:46:08.140Z,76.36
2016-10-30T11:47:07.828Z,77.50
2016-10-30T11:48:08.534Z,76.69
2016-10-30T11:49:08.003Z,76.99
2016-10-30T11:50:08.018Z,77.07
2016-10-30T11:51:07.713Z,76.99
2016-10-30T11:52:08.557Z,76.50
2016-10-30T11:53:08.248Z,75.99
2016-10-30T11:54:07.927Z,76.61
2016-10-30T11:55:08.545Z,76.45
2016-10-30T11:56:08.421Z,77.05
2016-10-30T11:57:14.262Z,76.84
2016-10-30T11:58:08.289Z,76.67
2016-10-30T11:59:08.028Z,76.96
2016-10-30T12:00:08.030Z,76.75
2016-10-30T12:01:07.975Z,77.39
2016-10-30T12:02:07.887Z,76.17
2016-10-30T12:03:08.575Z,74.46
2016-10-30T12:04:18.340Z,74.84
2016-10-30T12:05:08.010Z,75.07
2016-10-30T12:06:07.923Z,75.89
2016-10-30T12:07:08.730Z,75.78
2016-10-30T12:08:08.620Z,74.42
2016-10-30T12:09:08.218Z,74.27
2016-10-30T12:10:07.720Z,74.59
2016-10-30T12:11:08.580Z,73.09
2016-10-30T12:12:08.183Z,74.00
2016-10-30T12:13:08.476Z,73.97
2016-10-30T12:14:08.411Z,74.09
2016-10-30T12:15:08.310Z,74.46
2016-10-30T12:16:08.051Z,74.76
2016-10-30T12:17:08.323Z,74.56
2016-10-30T12:18:08.131Z,73.23
2016-10-30T12:19:07.784Z,73.73
2016-10-30T12:20:08.544Z,74.06
2016-10-30T12:21:08.234Z,74.74
2016-10-30T12:22:08.202Z,73.70
2016-10-30T12:23:07.828Z,73.50
2016-10-30T12:24:08.387Z,74.43
2016-10-30T12:25:08.031Z,74.26
2016-10-30T12:26:09.755Z,75.80
2016-10-30T12:27:08.391Z,74.24
2016-10-30T12:28:08.085Z,74.34
2016-10-30T12:29:08.706Z,75.08
2016-10-30T12:30:08.552Z,74.43
2016-10-30T12:31:08.241Z,73.75
2016-10-30T12:32:08.015Z,72.98
2016-10-30T12:33:07.989Z,73.20
2016-10-30T12:34:07.600Z,73.82
2016-10-30T12:35:08.551Z,73.93
2016-10-30T12:36:08.500Z,74.06
2016-10-30T12:37:08.195Z,73.02
2016-10-30T12:38:08.089Z,71.87
2016-10-30T12:39:07.759Z,72.12
2016-10-30T12:40:08.310Z,72.64
2016-10-30T12:41:08.295Z,73.05
2016-10-30T12:42:08.119Z,73.32
2016-10-30T12:43:07.755Z,72.40
2016-10-30T12:44:08.329Z,72.34
2016-10-30T12:45:07.909Z,71.23
2016-10-30T12:46:08.517Z,71.23
2016-10-30T12:47:08.120Z,72.52
2016-10-30T12:48:07.927Z,70.85
2016-10-30T12:49:08.572Z,69.35
2016-10-30T12:50:08.233Z,68.80
2016-10-30T12:51:07.946Z,68.41